TimeCST,TemperatureF,Dew PointF,Humidity,Sea Level PressureIn,VisibilityMPH,Wind Direction,Wind SpeedMPH,Gust SpeedMPH,PrecipitationIn,Events,Conditions,WindDirDegrees,DateUTC
12:55 AM,46.4,32.5,59,30.11,10.0,South,6.9,-,N/A,,Clear,180,2012-11-30 06:55:00
1:55 AM,45.9,32.9,61,30.12,10.0,South,6.9,-,N/A,,Clear,180,2012-11-30 07:55:00
2:55 AM,45.7,33.4,62,30.11,10.0,South,8.1,-,N/A,,Clear,180,2012-11-30 08:55:00
3:55 AM,45.3,33.3,63,30.10,10.0,South,5.8,-,N/A,,Clear,190,2012-11-30 09:55:00
4:55 AM,45.5,33.1,62,30.10,10.0,South,6.9,-,N/A,,Clear,190,2012-11-30 10:55:00
5:55 AM,44.1,33.1,65,30.11,10.0,South,5.8,-,N/A,,Clear,180,2012-11-30 11:55:00
6:55 AM,44.1,33.4,66,30.12,10.0,South,6.9,-,N/A,,Clear,190,2012-11-30 12:55:00
7:55 AM,47.1,34.5,62,30.12,10.0,SSW,5.8,-,N/A,,Clear,200,2012-11-30 13:55:00
8:55 AM,51.6,35.8,55,30.13,10.0,Variable,5.8,-,N/A,,Clear,0,2012-11-30 14:55:00
9:55 AM,57.0,40.5,54,30.12,10.0,SW,10.4,-,N/A,,Clear,220,2012-11-30 15:55:00
10:55 AM,60.1,43.3,54,30.12,10.0,SW,8.1,-,N/A,,Clear,230,2012-11-30 16:55:00
11:55 AM,63.1,45.1,52,30.09,10.0,Variable,4.6,-,N/A,,Clear,0,2012-11-30 17:55:00
12:55 PM,65.7,48.2,53,30.06,10.0,WSW,5.8,-,N/A,,Clear,240,2012-11-30 18:55:00
1:55 PM,66.7,48.9,53,30.05,10.0,WSW,8.1,-,N/A,,Clear,250,2012-11-30 19:55:00
2:55 PM,67.5,49.5,52,30.05,10.0,South,6.9,-,N/A,,Clear,170,2012-11-30 20:55:00
3:55 PM,66.4,48.7,53,30.06,10.0,South,5.8,-,N/A,,Clear,170,2012-11-30 21:55:00
4:55 PM,61.0,47.8,62,30.07,10.0,South,5.8,-,N/A,,Clear,170,2012-11-30 22:55:00
5:55 PM,57.9,47.7,69,30.08,10.0,SSE,5.8,-,N/A,,Clear,160,2012-11-30 23:55:00
6:55 PM,55.4,47.1,74,30.09,10.0,SSE,5.8,-,N/A,,Clear,160,2012-12-01 00:55:00
7:55 PM,53.8,46.8,77,30.09,10.0,SSE,8.1,-,N/A,,Scattered Clouds,150,2012-12-01 01:55:00
8:55 PM,55.6,46.2,71,30.07,10.0,SSE,9.2,-,N/A,,Clear,160,2012-12-01 02:55:00
9:55 PM,52.3,46.2,80,30.07,10.0,SSE,10.4,-,N/A,,Mostly Cloudy,150,2012-12-01 03:55:00
10:55 PM,49.6,46.2,88,30.07,10.0,SE,10.4,-,N/A,,Mostly Cloudy,140,2012-12-01 04:55:00
11:55 PM,49.3,47.1,92,30.07,10.0,SSE,8.1,-,N/A,,Partly Cloudy,150,2012-12-01 05:55:00